Rechercher aéroport 
image banner adimage banner adimage banner ad
image banner ad

4CL6 - Pat Coyle Memorial

Situé à San Marcos, United States

ICAO - 4CL6, IATA -

Données fournies par Airmate  

Information générale

Coordonnées: N33°8'32" W117°8'44"
Élévation : 600 feet MSL.
Variation magnétique : 13° East
Voir autres Aéroports à California

Données opérationnelles

Special qualification required
Heure actuelle UTC:
Heure actuelle locale:
Météo à : KCRQ - Mc Clellan-Palomar ( 13 km )
METAR: KCRQ 251553Z AUTO 00000KT 9SM OVC010 19/17 A2999 RMK AO2 SLP154 T01940167
TAF: KCRQ 251141Z 2512/2612 VRB04KT P6SM OVC011 FM252000 25007KT P6SM SCT012 OVC120 TEMPO 2520/2524 BKN010 FM260000 VRB05KT P6SM VCSH BKN012 OVC120 FM260600 VRB04KT P6SM -SHRA BKN007 OVC100
Voir NOTAMs / SUP AIP / TFR affectant cet aéroport [VIEW]
Fréquences de communication: [VIEW]

Pistes:

Coordonnées de l'aéroport

Adresse: San Marcos United States

Vue satellite de 4CL6